sensor_id;sensor_type;location;lat;lon;timestamp;P1;durP1;ratioP1;P2;durP2;ratioP2
21266;SDS011;10791;53.108;18.326;2023-02-17T00:02:54;75.53;;;35.80;;
21266;SDS011;10791;53.108;18.326;2023-02-17T00:07:59;63.83;;;33.47;;
21266;SDS011;10791;53.108;18.326;2023-02-17T00:13:02;78.67;;;36.20;;
21266;SDS011;10791;53.108;18.326;2023-02-17T00:18:05;60.37;;;31.33;;
21266;SDS011;10791;53.108;18.326;2023-02-17T00:23:08;70.67;;;36.80;;
21266;SDS011;10791;53.108;18.326;2023-02-17T00:28:13;74.83;;;35.10;;
21266;SDS011;10791;53.108;18.326;2023-02-17T00:33:18;72.07;;;34.30;;
21266;SDS011;10791;53.108;18.326;2023-02-17T00:38:24;67.10;;;32.67;;
21266;SDS011;10791;53.108;18.326;2023-02-17T00:43:28;68.90;;;32.80;;
21266;SDS011;10791;53.108;18.326;2023-02-17T00:48:31;64.77;;;32.33;;
21266;SDS011;10791;53.108;18.326;2023-02-17T00:53:38;70.60;;;34.37;;
21266;SDS011;10791;53.108;18.326;2023-02-17T00:58:42;71.70;;;33.47;;
21266;SDS011;10791;53.108;18.326;2023-02-17T01:03:49;68.70;;;33.77;;
21266;SDS011;10791;53.108;18.326;2023-02-17T01:08:52;67.47;;;33.33;;
21266;SDS011;10791;53.108;18.326;2023-02-17T01:13:56;64.17;;;34.70;;
21266;SDS011;10791;53.108;18.326;2023-02-17T01:19:03;65.10;;;31.07;;
21266;SDS011;10791;53.108;18.326;2023-02-17T01:24:08;61.07;;;30.80;;
21266;SDS011;10791;53.108;18.326;2023-02-17T01:29:13;71.37;;;35.10;;
21266;SDS011;10791;53.108;18.326;2023-02-17T01:34:16;64.67;;;33.73;;
21266;SDS011;10791;53.108;18.326;2023-02-17T01:39:19;67.37;;;34.83;;
21266;SDS011;10791;53.108;18.326;2023-02-17T01:44:24;70.43;;;35.30;;
21266;SDS011;10791;53.108;18.326;2023-02-17T01:49:29;72.37;;;33.90;;
21266;SDS011;10791;53.108;18.326;2023-02-17T01:54:43;72.70;;;34.27;;
21266;SDS011;10791;53.108;18.326;2023-02-17T01:59:50;65.17;;;32.37;;
21266;SDS011;10791;53.108;18.326;2023-02-17T02:04:54;59.57;;;31.33;;
21266;SDS011;10791;53.108;18.326;2023-02-17T02:09:58;67.40;;;32.80;;
21266;SDS011;10791;53.108;18.326;2023-02-17T02:15:12;70.20;;;33.80;;
21266;SDS011;10791;53.108;18.326;2023-02-17T02:31:28;67.83;;;34.50;;
21266;SDS011;10791;53.108;18.326;2023-02-17T02:36:43;55.37;;;29.33;;
21266;SDS011;10791;53.108;18.326;2023-02-17T02:41:57;52.77;;;26.63;;
21266;SDS011;10791;53.108;18.326;2023-02-17T02:47:05;50.13;;;27.37;;
21266;SDS011;10791;53.108;18.326;2023-02-17T03:08:46;56.23;;;28.20;;
21266;SDS011;10791;53.108;18.326;2023-02-17T03:13:54;49.63;;;27.23;;
21266;SDS011;10791;53.108;18.326;2023-02-17T03:18:57;56.80;;;28.53;;
21266;SDS011;10791;53.108;18.326;2023-02-17T03:24:00;51.63;;;29.07;;
21266;SDS011;10791;53.108;18.326;2023-02-17T03:29:05;58.27;;;28.53;;
21266;SDS011;10791;53.108;18.326;2023-02-17T03:34:08;53.17;;;29.07;;
21266;SDS011;10791;53.108;18.326;2023-02-17T03:39:11;49.00;;;28.07;;
21266;SDS011;10791;53.108;18.326;2023-02-17T03:44:14;52.47;;;28.17;;
21266;SDS011;10791;53.108;18.326;2023-02-17T03:49:18;54.27;;;28.10;;
21266;SDS011;10791;53.108;18.326;2023-02-17T03:54:21;53.57;;;28.60;;
21266;SDS011;10791;53.108;18.326;2023-02-17T03:59:24;52.23;;;28.37;;
21266;SDS011;10791;53.108;18.326;2023-02-17T04:04:27;49.00;;;27.03;;
21266;SDS011;10791;53.108;18.326;2023-02-17T04:09:30;52.77;;;28.90;;
21266;SDS011;10791;53.108;18.326;2023-02-17T04:14:34;59.50;;;28.50;;
21266;SDS011;10791;53.108;18.326;2023-02-17T04:19:37;48.03;;;27.93;;
21266;SDS011;10791;53.108;18.326;2023-02-17T04:24:40;46.60;;;27.07;;
21266;SDS011;10791;53.108;18.326;2023-02-17T04:29:43;48.13;;;26.93;;
21266;SDS011;10791;53.108;18.326;2023-02-17T04:34:46;50.53;;;27.13;;
21266;SDS011;10791;53.108;18.326;2023-02-17T04:39:49;49.37;;;27.33;;
21266;SDS011;10791;53.108;18.326;2023-02-17T04:44:53;50.33;;;28.13;;
21266;SDS011;10791;53.108;18.326;2023-02-17T04:49:56;52.80;;;27.50;;
21266;SDS011;10791;53.108;18.326;2023-02-17T04:54:59;49.73;;;26.33;;
21266;SDS011;10791;53.108;18.326;2023-02-17T05:00:04;43.90;;;25.47;;
21266;SDS011;10791;53.108;18.326;2023-02-17T05:05:08;48.83;;;25.20;;
21266;SDS011;10791;53.108;18.326;2023-02-17T05:10:12;45.47;;;25.50;;
21266;SDS011;10791;53.108;18.326;2023-02-17T05:15:17;50.50;;;26.80;;
21266;SDS011;10791;53.108;18.326;2023-02-17T05:20:20;48.33;;;25.47;;
21266;SDS011;10791;53.108;18.326;2023-02-17T05:25:24;40.43;;;23.97;;
21266;SDS011;10791;53.108;18.326;2023-02-17T05:30:27;39.67;;;24.10;;
21266;SDS011;10791;53.108;18.326;2023-02-17T05:35:32;41.87;;;22.27;;
21266;SDS011;10791;53.108;18.326;2023-02-17T05:40:36;42.70;;;22.77;;
21266;SDS011;10791;53.108;18.326;2023-02-17T05:45:39;36.70;;;21.63;;
21266;SDS011;10791;53.108;18.326;2023-02-17T05:50:46;46.47;;;23.97;;
21266;SDS011;10791;53.108;18.326;2023-02-17T05:55:49;40.50;;;22.07;;
21266;SDS011;10791;53.108;18.326;2023-02-17T06:00:52;41.57;;;22.63;;
21266;SDS011;10791;53.108;18.326;2023-02-17T06:05:55;37.90;;;21.10;;
21266;SDS011;10791;53.108;18.326;2023-02-17T06:10:59;45.63;;;22.57;;
21266;SDS011;10791;53.108;18.326;2023-02-17T06:16:02;38.67;;;21.20;;
21266;SDS011;10791;53.108;18.326;2023-02-17T06:21:06;38.80;;;20.90;;
21266;SDS011;10791;53.108;18.326;2023-02-17T06:26:09;35.70;;;21.90;;
21266;SDS011;10791;53.108;18.326;2023-02-17T06:31:15;34.70;;;19.70;;
21266;SDS011;10791;53.108;18.326;2023-02-17T06:36:22;36.33;;;21.60;;
21266;SDS011;10791;53.108;18.326;2023-02-17T06:41:25;38.00;;;22.30;;
21266;SDS011;10791;53.108;18.326;2023-02-17T06:46:28;41.30;;;21.97;;
21266;SDS011;10791;53.108;18.326;2023-02-17T06:51:32;39.63;;;21.57;;
21266;SDS011;10791;53.108;18.326;2023-02-17T06:56:35;35.90;;;21.87;;
21266;SDS011;10791;53.108;18.326;2023-02-17T07:13:57;43.17;;;24.40;;
21266;SDS011;10791;53.108;18.326;2023-02-17T07:19:01;37.00;;;22.50;;
21266;SDS011;10791;53.108;18.326;2023-02-17T07:24:04;37.83;;;22.60;;
21266;SDS011;10791;53.108;18.326;2023-02-17T07:29:08;42.63;;;22.83;;
21266;SDS011;10791;53.108;18.326;2023-02-17T07:34:13;37.93;;;22.47;;
21266;SDS011;10791;53.108;18.326;2023-02-17T07:39:18;35.87;;;22.00;;
21266;SDS011;10791;53.108;18.326;2023-02-17T07:44:21;38.37;;;22.43;;
21266;SDS011;10791;53.108;18.326;2023-02-17T07:49:24;35.60;;;21.90;;
21266;SDS011;10791;53.108;18.326;2023-02-17T07:54:27;36.87;;;22.50;;
21266;SDS011;10791;53.108;18.326;2023-02-17T07:59:30;39.40;;;23.13;;
21266;SDS011;10791;53.108;18.326;2023-02-17T08:04:34;35.77;;;22.13;;
21266;SDS011;10791;53.108;18.326;2023-02-17T08:09:37;39.77;;;23.10;;
21266;SDS011;10791;53.108;18.326;2023-02-17T08:14:59;43.53;;;23.03;;
21266;SDS011;10791;53.108;18.326;2023-02-17T08:20:04;40.57;;;21.83;;
21266;SDS011;10791;53.108;18.326;2023-02-17T08:25:10;45.33;;;25.00;;
21266;SDS011;10791;53.108;18.326;2023-02-17T08:30:13;39.50;;;23.37;;
21266;SDS011;10791;53.108;18.326;2023-02-17T08:35:17;46.33;;;23.50;;
21266;SDS011;10791;53.108;18.326;2023-02-17T08:40:23;43.77;;;23.77;;
21266;SDS011;10791;53.108;18.326;2023-02-17T08:45:27;44.53;;;23.33;;
21266;SDS011;10791;53.108;18.326;2023-02-17T08:50:31;44.23;;;23.50;;
21266;SDS011;10791;53.108;18.326;2023-02-17T08:55:37;40.43;;;22.97;;
21266;SDS011;10791;53.108;18.326;2023-02-17T09:00:50;38.63;;;22.77;;
21266;SDS011;10791;53.108;18.326;2023-02-17T09:05:54;39.20;;;23.20;;
21266;SDS011;10791;53.108;18.326;2023-02-17T09:10:58;45.07;;;24.27;;
21266;SDS011;10791;53.108;18.326;2023-02-17T09:16:02;43.43;;;23.47;;
21266;SDS011;10791;53.108;18.326;2023-02-17T09:21:08;40.07;;;22.77;;
21266;SDS011;10791;53.108;18.326;2023-02-17T09:26:13;40.83;;;24.30;;
21266;SDS011;10791;53.108;18.326;2023-02-17T09:31:44;44.73;;;24.67;;
21266;SDS011;10791;53.108;18.326;2023-02-17T09:36:48;44.37;;;25.40;;
21266;SDS011;10791;53.108;18.326;2023-02-17T09:41:52;42.97;;;24.40;;
21266;SDS011;10791;53.108;18.326;2023-02-17T09:52:09;47.30;;;25.80;;
21266;SDS011;10791;53.108;18.326;2023-02-17T09:57:17;45.23;;;24.30;;
21266;SDS011;10791;53.108;18.326;2023-02-17T10:02:24;45.17;;;24.97;;
21266;SDS011;10791;53.108;18.326;2023-02-17T10:07:53;45.13;;;24.83;;
21266;SDS011;10791;53.108;18.326;2023-02-17T10:13:03;49.20;;;25.80;;
21266;SDS011;10791;53.108;18.326;2023-02-17T10:18:13;51.27;;;27.00;;
21266;SDS011;10791;53.108;18.326;2023-02-17T10:23:22;44.07;;;24.67;;
21266;SDS011;10791;53.108;18.326;2023-02-17T10:44:42;43.00;;;23.47;;
21266;SDS011;10791;53.108;18.326;2023-02-17T10:49:46;42.30;;;24.40;;
21266;SDS011;10791;53.108;18.326;2023-02-17T10:54:57;39.43;;;24.03;;
21266;SDS011;10791;53.108;18.326;2023-02-17T11:00:23;43.13;;;24.07;;
21266;SDS011;10791;53.108;18.326;2023-02-17T11:05:30;47.90;;;25.17;;
21266;SDS011;10791;53.108;18.326;2023-02-17T11:11:31;39.43;;;24.00;;
21266;SDS011;10791;53.108;18.326;2023-02-17T11:22:37;38.43;;;23.70;;
21266;SDS011;10791;53.108;18.326;2023-02-17T11:27:48;42.23;;;22.97;;
21266;SDS011;10791;53.108;18.326;2023-02-17T11:32:55;38.80;;;21.77;;
21266;SDS011;10791;53.108;18.326;2023-02-17T11:38:09;38.90;;;24.43;;
21266;SDS011;10791;53.108;18.326;2023-02-17T12:00:18;36.40;;;21.37;;
21266;SDS011;10791;53.108;18.326;2023-02-17T12:05:25;34.30;;;19.77;;
21266;SDS011;10791;53.108;18.326;2023-02-17T12:11:08;33.77;;;20.37;;
21266;SDS011;10791;53.108;18.326;2023-02-17T12:38:12;31.07;;;19.23;;
21266;SDS011;10791;53.108;18.326;2023-02-17T12:43:27;27.10;;;17.97;;
21266;SDS011;10791;53.108;18.326;2023-02-17T12:48:37;25.47;;;16.73;;
21266;SDS011;10791;53.108;18.326;2023-02-17T13:04:28;24.07;;;15.50;;
21266;SDS011;10791;53.108;18.326;2023-02-17T13:09:33;22.50;;;15.10;;
21266;SDS011;10791;53.108;18.326;2023-02-17T13:14:41;21.70;;;14.57;;
21266;SDS011;10791;53.108;18.326;2023-02-17T13:19:47;19.80;;;14.20;;
21266;SDS011;10791;53.108;18.326;2023-02-17T13:31:22;19.97;;;13.67;;
21266;SDS011;10791;53.108;18.326;2023-02-17T13:41:46;20.27;;;13.70;;
21266;SDS011;10791;53.108;18.326;2023-02-17T13:46:50;20.73;;;14.50;;
21266;SDS011;10791;53.108;18.326;2023-02-17T13:51:55;20.37;;;13.97;;
21266;SDS011;10791;53.108;18.326;2023-02-17T13:57:23;21.03;;;13.50;;
21266;SDS011;10791;53.108;18.326;2023-02-17T14:02:28;21.27;;;13.60;;
21266;SDS011;10791;53.108;18.326;2023-02-17T14:07:37;22.50;;;15.13;;
21266;SDS011;10791;53.108;18.326;2023-02-17T14:12:41;22.83;;;15.07;;
21266;SDS011;10791;53.108;18.326;2023-02-17T14:17:44;23.53;;;15.50;;
21266;SDS011;10791;53.108;18.326;2023-02-17T14:22:48;25.33;;;15.87;;
21266;SDS011;10791;53.108;18.326;2023-02-17T14:28:22;21.43;;;15.03;;
21266;SDS011;10791;53.108;18.326;2023-02-17T14:33:26;22.33;;;14.67;;
21266;SDS011;10791;53.108;18.326;2023-02-17T14:38:38;18.47;;;13.30;;
21266;SDS011;10791;53.108;18.326;2023-02-17T14:43:43;21.07;;;14.80;;
21266;SDS011;10791;53.108;18.326;2023-02-17T14:48:50;22.33;;;14.97;;
21266;SDS011;10791;53.108;18.326;2023-02-17T14:53:54;20.53;;;13.73;;
21266;SDS011;10791;53.108;18.326;2023-02-17T14:58:57;20.73;;;14.43;;
21266;SDS011;10791;53.108;18.326;2023-02-17T15:04:01;18.10;;;13.13;;
21266;SDS011;10791;53.108;18.326;2023-02-17T15:09:07;18.37;;;12.43;;
21266;SDS011;10791;53.108;18.326;2023-02-17T15:14:16;17.07;;;12.37;;
21266;SDS011;10791;53.108;18.326;2023-02-17T15:19:21;19.43;;;12.33;;
21266;SDS011;10791;53.108;18.326;2023-02-17T15:24:27;16.23;;;11.57;;
21266;SDS011;10791;53.108;18.326;2023-02-17T15:29:38;19.03;;;12.43;;
21266;SDS011;10791;53.108;18.326;2023-02-17T15:34:41;19.23;;;12.13;;
21266;SDS011;10791;53.108;18.326;2023-02-17T15:39:46;16.03;;;10.80;;
21266;SDS011;10791;53.108;18.326;2023-02-17T15:44:49;18.20;;;11.30;;
21266;SDS011;10791;53.108;18.326;2023-02-17T15:49:55;17.90;;;12.07;;
21266;SDS011;10791;53.108;18.326;2023-02-17T15:54:58;15.97;;;10.87;;
21266;SDS011;10791;53.108;18.326;2023-02-17T16:00:02;14.90;;;10.27;;
21266;SDS011;10791;53.108;18.326;2023-02-17T16:05:12;14.63;;;10.57;;
21266;SDS011;10791;53.108;18.326;2023-02-17T16:10:18;14.60;;;10.50;;
21266;SDS011;10791;53.108;18.326;2023-02-17T16:15:24;14.90;;;10.93;;
21266;SDS011;10791;53.108;18.326;2023-02-17T16:20:30;16.77;;;10.97;;
21266;SDS011;10791;53.108;18.326;2023-02-17T16:25:37;16.53;;;11.07;;
21266;SDS011;10791;53.108;18.326;2023-02-17T16:30:40;17.13;;;11.90;;
21266;SDS011;10791;53.108;18.326;2023-02-17T16:35:45;17.00;;;11.60;;
21266;SDS011;10791;53.108;18.326;2023-02-17T16:40:49;15.17;;;11.10;;
21266;SDS011;10791;53.108;18.326;2023-02-17T16:45:56;15.27;;;11.87;;
21266;SDS011;10791;53.108;18.326;2023-02-17T16:51:05;17.60;;;11.70;;
21266;SDS011;10791;53.108;18.326;2023-02-17T16:56:14;15.50;;;12.00;;
21266;SDS011;10791;53.108;18.326;2023-02-17T17:01:21;20.33;;;13.20;;
21266;SDS011;10791;53.108;18.326;2023-02-17T17:06:27;18.97;;;13.17;;
21266;SDS011;10791;53.108;18.326;2023-02-17T17:11:32;20.53;;;14.50;;
21266;SDS011;10791;53.108;18.326;2023-02-17T17:16:36;18.87;;;13.70;;
21266;SDS011;10791;53.108;18.326;2023-02-17T17:21:46;20.40;;;14.33;;
21266;SDS011;10791;53.108;18.326;2023-02-17T17:26:53;21.73;;;13.70;;
21266;SDS011;10791;53.108;18.326;2023-02-17T17:31:57;19.90;;;13.70;;
21266;SDS011;10791;53.108;18.326;2023-02-17T17:37:02;20.87;;;13.80;;
21266;SDS011;10791;53.108;18.326;2023-02-17T17:42:06;19.53;;;13.50;;
21266;SDS011;10791;53.108;18.326;2023-02-17T17:47:12;21.13;;;14.10;;
21266;SDS011;10791;53.108;18.326;2023-02-17T17:52:31;19.43;;;12.30;;
21266;SDS011;10791;53.108;18.326;2023-02-17T17:57:35;19.43;;;14.37;;
21266;SDS011;10791;53.108;18.326;2023-02-17T18:02:41;21.27;;;13.47;;
21266;SDS011;10791;53.108;18.326;2023-02-17T18:07:49;19.40;;;13.47;;
21266;SDS011;10791;53.108;18.326;2023-02-17T18:12:55;17.47;;;11.10;;
21266;SDS011;10791;53.108;18.326;2023-02-17T18:18:07;16.07;;;11.80;;
21266;SDS011;10791;53.108;18.326;2023-02-17T18:23:15;15.30;;;11.07;;
21266;SDS011;10791;53.108;18.326;2023-02-17T18:28:21;18.23;;;11.90;;
21266;SDS011;10791;53.108;18.326;2023-02-17T18:33:27;13.20;;;10.40;;
21266;SDS011;10791;53.108;18.326;2023-02-17T18:38:32;16.23;;;10.23;;
21266;SDS011;10791;53.108;18.326;2023-02-17T18:43:36;15.03;;;9.77;;
21266;SDS011;10791;53.108;18.326;2023-02-17T18:48:42;13.53;;;9.60;;
21266;SDS011;10791;53.108;18.326;2023-02-17T18:53:48;11.23;;;8.10;;
21266;SDS011;10791;53.108;18.326;2023-02-17T18:58:55;13.50;;;8.33;;
21266;SDS011;10791;53.108;18.326;2023-02-17T19:04:02;14.23;;;8.87;;
21266;SDS011;10791;53.108;18.326;2023-02-17T19:09:09;11.60;;;8.10;;
21266;SDS011;10791;53.108;18.326;2023-02-17T19:27:22;6.23;;;3.60;;
21266;SDS011;10791;53.108;18.326;2023-02-17T19:32:28;6.30;;;3.50;;
21266;SDS011;10791;53.108;18.326;2023-02-17T19:37:33;6.53;;;4.23;;
21266;SDS011;10791;53.108;18.326;2023-02-17T19:42:40;6.13;;;2.83;;
21266;SDS011;10791;53.108;18.326;2023-02-17T19:47:45;6.80;;;2.80;;
21266;SDS011;10791;53.108;18.326;2023-02-17T19:52:51;3.53;;;1.73;;
21266;SDS011;10791;53.108;18.326;2023-02-17T19:57:56;3.53;;;1.50;;
21266;SDS011;10791;53.108;18.326;2023-02-17T20:03:01;3.30;;;1.33;;
21266;SDS011;10791;53.108;18.326;2023-02-17T20:08:07;7.47;;;2.23;;
21266;SDS011;10791;53.108;18.326;2023-02-17T20:13:15;8.90;;;2.37;;
21266;SDS011;10791;53.108;18.326;2023-02-17T20:18:22;3.13;;;1.53;;
21266;SDS011;10791;53.108;18.326;2023-02-17T20:23:29;5.03;;;1.40;;
21266;SDS011;10791;53.108;18.326;2023-02-17T20:28:35;5.97;;;1.60;;
21266;SDS011;10791;53.108;18.326;2023-02-17T20:33:41;3.93;;;1.20;;
21266;SDS011;10791;53.108;18.326;2023-02-17T20:38:45;3.20;;;0.90;;
21266;SDS011;10791;53.108;18.326;2023-02-17T20:43:53;2.60;;;1.10;;
21266;SDS011;10791;53.108;18.326;2023-02-17T20:48:58;4.40;;;1.30;;
21266;SDS011;10791;53.108;18.326;2023-02-17T20:54:02;4.90;;;1.80;;
21266;SDS011;10791;53.108;18.326;2023-02-17T20:59:17;4.20;;;1.30;;
21266;SDS011;10791;53.108;18.326;2023-02-17T21:04:22;11.73;;;1.73;;
21266;SDS011;10791;53.108;18.326;2023-02-17T21:09:32;6.60;;;1.37;;
21266;SDS011;10791;53.108;18.326;2023-02-17T21:14:37;4.50;;;1.33;;
21266;SDS011;10791;53.108;18.326;2023-02-17T21:19:45;7.63;;;1.37;;
21266;SDS011;10791;53.108;18.326;2023-02-17T21:24:50;9.30;;;1.73;;
21266;SDS011;10791;53.108;18.326;2023-02-17T21:29:54;3.53;;;1.13;;
21266;SDS011;10791;53.108;18.326;2023-02-17T21:34:58;7.30;;;1.90;;
21266;SDS011;10791;53.108;18.326;2023-02-17T21:40:08;5.57;;;1.03;;
21266;SDS011;10791;53.108;18.326;2023-02-17T21:45:13;8.03;;;1.40;;
21266;SDS011;10791;53.108;18.326;2023-02-17T21:50:18;3.73;;;1.23;;
21266;SDS011;10791;53.108;18.326;2023-02-17T21:55:23;6.13;;;1.20;;
21266;SDS011;10791;53.108;18.326;2023-02-17T22:00:27;9.80;;;1.53;;
21266;SDS011;10791;53.108;18.326;2023-02-17T22:05:31;14.17;;;1.90;;
21266;SDS011;10791;53.108;18.326;2023-02-17T22:10:36;9.37;;;1.77;;
21266;SDS011;10791;53.108;18.326;2023-02-17T22:15:40;9.20;;;2.00;;
21266;SDS011;10791;53.108;18.326;2023-02-17T22:20:44;4.73;;;1.20;;
21266;SDS011;10791;53.108;18.326;2023-02-17T22:40:27;8.93;;;2.17;;
21266;SDS011;10791;53.108;18.326;2023-02-17T22:45:30;4.83;;;1.23;;
21266;SDS011;10791;53.108;18.326;2023-02-17T22:50:36;6.20;;;2.03;;
21266;SDS011;10791;53.108;18.326;2023-02-17T22:55:49;9.80;;;2.00;;
21266;SDS011;10791;53.108;18.326;2023-02-17T23:01:18;4.53;;;1.10;;
21266;SDS011;10791;53.108;18.326;2023-02-17T23:06:26;8.60;;;1.50;;
21266;SDS011;10791;53.108;18.326;2023-02-17T23:11:38;8.83;;;1.77;;
21266;SDS011;10791;53.108;18.326;2023-02-17T23:17:00;13.27;;;1.57;;
21266;SDS011;10791;53.108;18.326;2023-02-17T23:22:06;7.70;;;1.07;;
21266;SDS011;10791;53.108;18.326;2023-02-17T23:27:12;4.67;;;1.47;;
21266;SDS011;10791;53.108;18.326;2023-02-17T23:32:16;7.17;;;1.43;;
21266;SDS011;10791;53.108;18.326;2023-02-17T23:37:20;2.27;;;0.80;;
21266;SDS011;10791;53.108;18.326;2023-02-17T23:42:24;4.97;;;1.20;;
21266;SDS011;10791;53.108;18.326;2023-02-17T23:47:27;4.37;;;1.47;;
